Academy, New Jersey
Current Conditions -  °F | °C
As of 5:15 AM on Tuesday 27 Jan 2015 (Local Time) from KEWR Reporting Station
Light Snow Light Snow  
Wind Chill:   Ceiling: 2000
Heat Index: 19°   Visibility: 1mi
Dew Point: 18°   Wind: 21mph
Humidity: 93%   Direction: 350°N
Pressure: 29.67"   Gusts: 33mph
Location:  40.7334°N, 74.1735°W
Report Text: KEWR 271015Z 35018G29KT 1SM -SN BLSN SCT015 OVC020 M07/M08 A2967 RMK AO2 PK WND 36029/1007 SFC VIS 1 1/4 P0001 $
Loading
Personal Weather Stations






























Interactive Weather Map New forecast layout! Learn more

10-Day Weather Forecast

Advertisements
Track Severe Weather on mobile